Purdon, Texas
Current Conditions -  °F | °C
As of 11:53 PM on Tuesday 21 Oct 2014 (Local Time) from KCRS Reporting Station
Clear Clear  
Wind Chill: 67°   Ceiling: Unl
Heat Index: 67°   Visibility: 10mi
Dew Point: 61°   Wind: 3mph
Humidity: 81%   Direction: 130°SE
Pressure: 30.07"   Gusts: NA
Location:  31.95°N, 96.62°W
Report Text: KCRS 220453Z AUTO 13003KT 10SM CLR 19/16 A3007 RMK AO2 SLP180 T01940161
Loading
Personal Weather Stations






























Interactive Weather Map
Tropical Storm Tracking
New forecast layout! Learn more

10-Day Weather Forecast

Advertisements
Track Severe Weather on mobile